Terminal Aerodrome Forecast
Issued by NWS

Home | Current Version | Previous Version | Text Only | Print | Product List | Glossary On
Versions: 1 2 3 4 5 6 7 8 9 10 11 12 13 14 15 16 17 18 19 20 21 22 23 24 25 26
000
FTUS43 KAPX 240253 AAA
TAFTVC
TAF AMD
KTVC 240253Z 2403/2424 VRB03KT 3SM -RA BR BKN006 OVC012
      TEMPO 2403/2407 1SM -RA BR
     FM240700 VRB03KT 2SM BR VCSH OVC004
      TEMPO 2408/2412 1/2SM FG
     FM241600 32004KT 4SM BR BKN004 OVC008=

USA.gov is the U.S. government's official web portal to all federal, state and local government web resources and services.